sensor_id;sensor_type;location;lat;lon;timestamp;P1;durP1;ratioP1;P2;durP2;ratioP2
73072;SDS011;61260;51.090;-1.786;2023-02-03T00:00:55;2.30;;;0.10;;
73072;SDS011;61260;51.090;-1.786;2023-02-03T00:03:25;1.30;;;0.20;;
73072;SDS011;61260;51.090;-1.786;2023-02-03T00:05:54;0.90;;;0.10;;
73072;SDS011;61260;51.090;-1.786;2023-02-03T00:08:24;0.80;;;0.20;;
73072;SDS011;61260;51.090;-1.786;2023-02-03T00:10:54;2.60;;;0.70;;
73072;SDS011;61260;51.090;-1.786;2023-02-03T00:13:25;0.20;;;0.10;;
73072;SDS011;61260;51.090;-1.786;2023-02-03T00:15:55;0.30;;;0.10;;
73072;SDS011;61260;51.090;-1.786;2023-02-03T00:18:27;0.30;;;0.00;;
73072;SDS011;61260;51.090;-1.786;2023-02-03T00:20:56;0.90;;;0.10;;
73072;SDS011;61260;51.090;-1.786;2023-02-03T00:23:26;0.50;;;0.10;;
73072;SDS011;61260;51.090;-1.786;2023-02-03T00:28:25;0.50;;;0.10;;
73072;SDS011;61260;51.090;-1.786;2023-02-03T00:30:57;0.60;;;0.10;;
73072;SDS011;61260;51.090;-1.786;2023-02-03T00:33:27;1.10;;;0.10;;
73072;SDS011;61260;51.090;-1.786;2023-02-03T00:35:56;0.70;;;0.10;;
73072;SDS011;61260;51.090;-1.786;2023-02-03T00:38:30;0.70;;;0.20;;
73072;SDS011;61260;51.090;-1.786;2023-02-03T00:41:00;0.90;;;0.10;;
73072;SDS011;61260;51.090;-1.786;2023-02-03T00:43:30;0.40;;;0.10;;
73072;SDS011;61260;51.090;-1.786;2023-02-03T00:46:00;0.40;;;0.20;;
73072;SDS011;61260;51.090;-1.786;2023-02-03T00:48:29;0.30;;;0.10;;
73072;SDS011;61260;51.090;-1.786;2023-02-03T00:50:59;0.50;;;0.10;;
73072;SDS011;61260;51.090;-1.786;2023-02-03T00:53:29;0.60;;;0.30;;
73072;SDS011;61260;51.090;-1.786;2023-02-03T00:55:59;1.20;;;0.30;;
73072;SDS011;61260;51.090;-1.786;2023-02-03T00:58:28;1.20;;;0.40;;
73072;SDS011;61260;51.090;-1.786;2023-02-03T01:00:58;0.50;;;0.00;;
73072;SDS011;61260;51.090;-1.786;2023-02-03T01:03:27;0.30;;;0.10;;
73072;SDS011;61260;51.090;-1.786;2023-02-03T01:06:06;0.60;;;0.00;;
73072;SDS011;61260;51.090;-1.786;2023-02-03T01:08:37;0.10;;;0.10;;
73072;SDS011;61260;51.090;-1.786;2023-02-03T01:11:08;0.20;;;0.00;;
73072;SDS011;61260;51.090;-1.786;2023-02-03T01:13:39;0.60;;;0.10;;
73072;SDS011;61260;51.090;-1.786;2023-02-03T01:16:09;0.20;;;0.10;;
73072;SDS011;61260;51.090;-1.786;2023-02-03T01:18:40;0.20;;;0.10;;
73072;SDS011;61260;51.090;-1.786;2023-02-03T01:21:11;0.40;;;0.10;;
73072;SDS011;61260;51.090;-1.786;2023-02-03T01:23:42;0.30;;;0.10;;
73072;SDS011;61260;51.090;-1.786;2023-02-03T01:26:13;2.90;;;0.20;;
73072;SDS011;61260;51.090;-1.786;2023-02-03T01:28:49;0.40;;;0.20;;
73072;SDS011;61260;51.090;-1.786;2023-02-03T01:31:20;1.10;;;0.00;;
73072;SDS011;61260;51.090;-1.786;2023-02-03T01:33:51;0.50;;;0.10;;
73072;SDS011;61260;51.090;-1.786;2023-02-03T01:36:23;1.20;;;0.10;;
73072;SDS011;61260;51.090;-1.786;2023-02-03T01:38:53;0.40;;;0.20;;
73072;SDS011;61260;51.090;-1.786;2023-02-03T01:41:24;0.30;;;0.10;;
73072;SDS011;61260;51.090;-1.786;2023-02-03T01:43:56;0.30;;;0.00;;
73072;SDS011;61260;51.090;-1.786;2023-02-03T01:49:00;0.50;;;0.00;;
73072;SDS011;61260;51.090;-1.786;2023-02-03T01:54:05;1.90;;;0.00;;
73072;SDS011;61260;51.090;-1.786;2023-02-03T01:56:39;1.10;;;0.10;;
73072;SDS011;61260;51.090;-1.786;2023-02-03T01:59:13;0.40;;;0.10;;
73072;SDS011;61260;51.090;-1.786;2023-02-03T02:01:46;0.50;;;0.10;;
73072;SDS011;61260;51.090;-1.786;2023-02-03T02:04:17;0.50;;;0.00;;
73072;SDS011;61260;51.090;-1.786;2023-02-03T02:06:47;1.10;;;0.10;;
73072;SDS011;61260;51.090;-1.786;2023-02-03T02:09:17;0.40;;;0.00;;
73072;SDS011;61260;51.090;-1.786;2023-02-03T02:11:47;0.50;;;0.10;;
73072;SDS011;61260;51.090;-1.786;2023-02-03T02:14:16;0.40;;;0.10;;
73072;SDS011;61260;51.090;-1.786;2023-02-03T02:16:49;0.70;;;0.20;;
73072;SDS011;61260;51.090;-1.786;2023-02-03T02:19:35;0.80;;;0.10;;
73072;SDS011;61260;51.090;-1.786;2023-02-03T02:22:24;0.40;;;0.00;;
73072;SDS011;61260;51.090;-1.786;2023-02-03T02:25:16;0.40;;;0.10;;
73072;SDS011;61260;51.090;-1.786;2023-02-03T02:28:09;0.40;;;0.30;;
73072;SDS011;61260;51.090;-1.786;2023-02-03T02:33:50;0.60;;;0.20;;
73072;SDS011;61260;51.090;-1.786;2023-02-03T02:36:29;0.50;;;0.10;;
73072;SDS011;61260;51.090;-1.786;2023-02-03T02:39:03;2.00;;;0.50;;
73072;SDS011;61260;51.090;-1.786;2023-02-03T02:41:41;0.20;;;0.10;;
73072;SDS011;61260;51.090;-1.786;2023-02-03T02:44:16;0.80;;;0.10;;
73072;SDS011;61260;51.090;-1.786;2023-02-03T02:46:52;0.50;;;0.10;;
73072;SDS011;61260;51.090;-1.786;2023-02-03T02:49:26;1.90;;;0.30;;
73072;SDS011;61260;51.090;-1.786;2023-02-03T02:52:02;0.30;;;0.00;;
73072;SDS011;61260;51.090;-1.786;2023-02-03T02:54:35;0.60;;;0.10;;
73072;SDS011;61260;51.090;-1.786;2023-02-03T02:57:09;1.10;;;0.10;;
73072;SDS011;61260;51.090;-1.786;2023-02-03T02:59:41;0.40;;;0.10;;
73072;SDS011;61260;51.090;-1.786;2023-02-03T03:02:11;0.70;;;0.10;;
73072;SDS011;61260;51.090;-1.786;2023-02-03T03:04:42;0.30;;;0.00;;
73072;SDS011;61260;51.090;-1.786;2023-02-03T03:07:15;0.60;;;0.20;;
73072;SDS011;61260;51.090;-1.786;2023-02-03T03:09:48;0.70;;;0.10;;
73072;SDS011;61260;51.090;-1.786;2023-02-03T03:12:22;0.40;;;0.10;;
73072;SDS011;61260;51.090;-1.786;2023-02-03T03:14:57;0.50;;;0.10;;
73072;SDS011;61260;51.090;-1.786;2023-02-03T03:17:33;1.00;;;0.20;;
73072;SDS011;61260;51.090;-1.786;2023-02-03T03:20:08;1.60;;;0.30;;
73072;SDS011;61260;51.090;-1.786;2023-02-03T03:22:46;1.10;;;0.20;;
73072;SDS011;61260;51.090;-1.786;2023-02-03T03:25:22;0.50;;;0.20;;
73072;SDS011;61260;51.090;-1.786;2023-02-03T03:27:58;1.00;;;0.20;;
73072;SDS011;61260;51.090;-1.786;2023-02-03T03:30:31;1.00;;;0.10;;
73072;SDS011;61260;51.090;-1.786;2023-02-03T03:33:03;0.10;;;0.00;;
73072;SDS011;61260;51.090;-1.786;2023-02-03T03:35:36;0.20;;;0.10;;
73072;SDS011;61260;51.090;-1.786;2023-02-03T03:38:13;0.40;;;0.10;;
73072;SDS011;61260;51.090;-1.786;2023-02-03T03:40:50;0.40;;;0.10;;
73072;SDS011;61260;51.090;-1.786;2023-02-03T03:43:26;0.50;;;0.30;;
73072;SDS011;61260;51.090;-1.786;2023-02-03T03:46:00;0.30;;;0.10;;
73072;SDS011;61260;51.090;-1.786;2023-02-03T03:48:38;0.40;;;0.10;;
73072;SDS011;61260;51.090;-1.786;2023-02-03T03:51:15;0.70;;;0.00;;
73072;SDS011;61260;51.090;-1.786;2023-02-03T03:53:50;0.10;;;0.00;;
73072;SDS011;61260;51.090;-1.786;2023-02-03T03:56:23;0.90;;;0.20;;
73072;SDS011;61260;51.090;-1.786;2023-02-03T03:58:55;0.50;;;0.10;;
73072;SDS011;61260;51.090;-1.786;2023-02-03T04:01:28;0.80;;;0.10;;
73072;SDS011;61260;51.090;-1.786;2023-02-03T04:03:59;1.20;;;0.10;;
73072;SDS011;61260;51.090;-1.786;2023-02-03T04:06:33;1.30;;;0.20;;
73072;SDS011;61260;51.090;-1.786;2023-02-03T04:09:04;0.30;;;0.20;;
73072;SDS011;61260;51.090;-1.786;2023-02-03T04:11:34;0.40;;;0.10;;
73072;SDS011;61260;51.090;-1.786;2023-02-03T04:14:21;0.30;;;0.20;;
73072;SDS011;61260;51.090;-1.786;2023-02-03T04:16:51;0.80;;;0.20;;
73072;SDS011;61260;51.090;-1.786;2023-02-03T04:19:20;0.20;;;0.10;;
73072;SDS011;61260;51.090;-1.786;2023-02-03T04:21:50;1.00;;;0.10;;
73072;SDS011;61260;51.090;-1.786;2023-02-03T04:24:20;0.70;;;0.10;;
73072;SDS011;61260;51.090;-1.786;2023-02-03T04:26:49;0.90;;;0.10;;
73072;SDS011;61260;51.090;-1.786;2023-02-03T04:29:19;0.40;;;0.10;;
73072;SDS011;61260;51.090;-1.786;2023-02-03T04:31:49;0.20;;;0.10;;
73072;SDS011;61260;51.090;-1.786;2023-02-03T04:34:18;0.50;;;0.10;;
73072;SDS011;61260;51.090;-1.786;2023-02-03T04:36:48;0.40;;;0.20;;
73072;SDS011;61260;51.090;-1.786;2023-02-03T04:39:18;0.20;;;0.10;;
73072;SDS011;61260;51.090;-1.786;2023-02-03T04:41:48;0.50;;;0.20;;
73072;SDS011;61260;51.090;-1.786;2023-02-03T04:44:17;0.20;;;0.00;;
73072;SDS011;61260;51.090;-1.786;2023-02-03T04:46:47;0.10;;;0.10;;
73072;SDS011;61260;51.090;-1.786;2023-02-03T04:49:17;0.10;;;0.00;;
73072;SDS011;61260;51.090;-1.786;2023-02-03T04:51:48;0.40;;;0.00;;
73072;SDS011;61260;51.090;-1.786;2023-02-03T04:54:18;0.50;;;0.10;;
73072;SDS011;61260;51.090;-1.786;2023-02-03T04:56:48;0.70;;;0.20;;
73072;SDS011;61260;51.090;-1.786;2023-02-03T04:59:17;0.60;;;0.20;;
73072;SDS011;61260;51.090;-1.786;2023-02-03T05:01:47;0.10;;;0.10;;
73072;SDS011;61260;51.090;-1.786;2023-02-03T05:04:17;0.70;;;0.10;;
73072;SDS011;61260;51.090;-1.786;2023-02-03T05:06:46;0.20;;;0.10;;
73072;SDS011;61260;51.090;-1.786;2023-02-03T05:09:16;0.40;;;0.00;;
73072;SDS011;61260;51.090;-1.786;2023-02-03T05:11:46;0.30;;;0.00;;
73072;SDS011;61260;51.090;-1.786;2023-02-03T05:14:16;0.90;;;0.10;;
73072;SDS011;61260;51.090;-1.786;2023-02-03T05:16:46;0.30;;;0.10;;
73072;SDS011;61260;51.090;-1.786;2023-02-03T05:19:15;0.10;;;0.10;;
73072;SDS011;61260;51.090;-1.786;2023-02-03T05:21:45;0.20;;;0.10;;
73072;SDS011;61260;51.090;-1.786;2023-02-03T05:24:15;0.60;;;0.00;;
73072;SDS011;61260;51.090;-1.786;2023-02-03T05:26:44;0.50;;;0.10;;
73072;SDS011;61260;51.090;-1.786;2023-02-03T05:29:14;0.60;;;0.10;;
73072;SDS011;61260;51.090;-1.786;2023-02-03T05:31:44;0.30;;;0.00;;
73072;SDS011;61260;51.090;-1.786;2023-02-03T05:34:13;0.00;;;0.00;;
73072;SDS011;61260;51.090;-1.786;2023-02-03T05:36:43;0.20;;;0.10;;
73072;SDS011;61260;51.090;-1.786;2023-02-03T05:39:13;0.40;;;0.10;;
73072;SDS011;61260;51.090;-1.786;2023-02-03T05:41:42;0.30;;;0.10;;
73072;SDS011;61260;51.090;-1.786;2023-02-03T05:44:22;0.30;;;0.00;;
73072;SDS011;61260;51.090;-1.786;2023-02-03T05:46:53;0.00;;;0.00;;
73072;SDS011;61260;51.090;-1.786;2023-02-03T05:49:24;0.20;;;0.00;;
73072;SDS011;61260;51.090;-1.786;2023-02-03T05:51:54;0.40;;;0.10;;
73072;SDS011;61260;51.090;-1.786;2023-02-03T05:54:24;0.30;;;0.10;;
73072;SDS011;61260;51.090;-1.786;2023-02-03T05:56:54;0.30;;;0.10;;
73072;SDS011;61260;51.090;-1.786;2023-02-03T05:59:23;0.40;;;0.10;;
73072;SDS011;61260;51.090;-1.786;2023-02-03T06:01:53;0.10;;;0.00;;
73072;SDS011;61260;51.090;-1.786;2023-02-03T06:04:23;0.30;;;0.00;;
73072;SDS011;61260;51.090;-1.786;2023-02-03T06:06:52;1.60;;;0.20;;
73072;SDS011;61260;51.090;-1.786;2023-02-03T06:09:22;0.20;;;0.00;;
73072;SDS011;61260;51.090;-1.786;2023-02-03T06:11:52;0.40;;;0.10;;
73072;SDS011;61260;51.090;-1.786;2023-02-03T06:14:21;0.50;;;0.00;;
73072;SDS011;61260;51.090;-1.786;2023-02-03T06:16:51;0.70;;;0.10;;
73072;SDS011;61260;51.090;-1.786;2023-02-03T06:19:20;0.20;;;0.10;;
73072;SDS011;61260;51.090;-1.786;2023-02-03T06:21:50;0.30;;;0.10;;
73072;SDS011;61260;51.090;-1.786;2023-02-03T06:24:20;0.80;;;0.00;;
73072;SDS011;61260;51.090;-1.786;2023-02-03T06:26:49;0.50;;;0.10;;
73072;SDS011;61260;51.090;-1.786;2023-02-03T06:29:19;0.40;;;0.10;;
73072;SDS011;61260;51.090;-1.786;2023-02-03T06:31:48;0.70;;;0.20;;
73072;SDS011;61260;51.090;-1.786;2023-02-03T06:34:18;0.20;;;0.00;;
73072;SDS011;61260;51.090;-1.786;2023-02-03T06:36:48;0.00;;;0.00;;
73072;SDS011;61260;51.090;-1.786;2023-02-03T06:39:17;0.20;;;0.10;;
73072;SDS011;61260;51.090;-1.786;2023-02-03T06:41:47;0.40;;;0.10;;
73072;SDS011;61260;51.090;-1.786;2023-02-03T06:44:17;0.20;;;0.00;;
73072;SDS011;61260;51.090;-1.786;2023-02-03T06:46:47;0.90;;;0.00;;
73072;SDS011;61260;51.090;-1.786;2023-02-03T06:49:17;0.70;;;0.00;;
73072;SDS011;61260;51.090;-1.786;2023-02-03T06:51:47;0.40;;;0.10;;
73072;SDS011;61260;51.090;-1.786;2023-02-03T06:54:17;0.20;;;0.00;;
73072;SDS011;61260;51.090;-1.786;2023-02-03T06:56:47;0.30;;;0.10;;
73072;SDS011;61260;51.090;-1.786;2023-02-03T06:59:17;0.30;;;0.10;;
73072;SDS011;61260;51.090;-1.786;2023-02-03T07:01:47;0.10;;;0.00;;
73072;SDS011;61260;51.090;-1.786;2023-02-03T07:04:17;0.30;;;0.00;;
73072;SDS011;61260;51.090;-1.786;2023-02-03T07:06:46;0.80;;;0.10;;
73072;SDS011;61260;51.090;-1.786;2023-02-03T07:09:16;0.70;;;0.40;;
73072;SDS011;61260;51.090;-1.786;2023-02-03T07:11:46;0.40;;;0.00;;
73072;SDS011;61260;51.090;-1.786;2023-02-03T07:14:16;0.10;;;0.00;;
73072;SDS011;61260;51.090;-1.786;2023-02-03T07:16:45;0.10;;;0.00;;
73072;SDS011;61260;51.090;-1.786;2023-02-03T07:19:15;0.10;;;0.00;;
73072;SDS011;61260;51.090;-1.786;2023-02-03T07:21:45;0.20;;;0.00;;
73072;SDS011;61260;51.090;-1.786;2023-02-03T07:24:14;1.00;;;0.30;;
73072;SDS011;61260;51.090;-1.786;2023-02-03T07:26:44;0.20;;;0.10;;
73072;SDS011;61260;51.090;-1.786;2023-02-03T07:29:14;0.20;;;0.00;;
73072;SDS011;61260;51.090;-1.786;2023-02-03T07:31:44;0.70;;;0.10;;
73072;SDS011;61260;51.090;-1.786;2023-02-03T07:34:13;0.70;;;0.00;;
73072;SDS011;61260;51.090;-1.786;2023-02-03T07:36:43;0.30;;;0.00;;
73072;SDS011;61260;51.090;-1.786;2023-02-03T07:39:13;0.20;;;0.00;;
73072;SDS011;61260;51.090;-1.786;2023-02-03T07:41:42;0.40;;;0.00;;
73072;SDS011;61260;51.090;-1.786;2023-02-03T07:44:12;0.10;;;0.00;;
73072;SDS011;61260;51.090;-1.786;2023-02-03T07:46:42;0.10;;;0.00;;
73072;SDS011;61260;51.090;-1.786;2023-02-03T07:49:12;0.30;;;0.10;;
73072;SDS011;61260;51.090;-1.786;2023-02-03T07:51:42;0.40;;;0.10;;
73072;SDS011;61260;51.090;-1.786;2023-02-03T07:54:12;0.90;;;0.00;;
73072;SDS011;61260;51.090;-1.786;2023-02-03T07:56:42;0.90;;;0.30;;
73072;SDS011;61260;51.090;-1.786;2023-02-03T07:59:12;0.60;;;0.10;;
73072;SDS011;61260;51.090;-1.786;2023-02-03T08:01:43;1.30;;;0.10;;
73072;SDS011;61260;51.090;-1.786;2023-02-03T08:04:12;1.10;;;0.30;;
73072;SDS011;61260;51.090;-1.786;2023-02-03T08:06:43;0.90;;;0.10;;
73072;SDS011;61260;51.090;-1.786;2023-02-03T08:09:12;0.30;;;0.10;;
73072;SDS011;61260;51.090;-1.786;2023-02-03T08:11:42;0.20;;;0.00;;
73072;SDS011;61260;51.090;-1.786;2023-02-03T08:14:12;1.80;;;0.20;;
73072;SDS011;61260;51.090;-1.786;2023-02-03T08:16:42;0.60;;;0.10;;
73072;SDS011;61260;51.090;-1.786;2023-02-03T08:19:12;1.50;;;0.10;;
73072;SDS011;61260;51.090;-1.786;2023-02-03T08:21:42;0.50;;;0.10;;
73072;SDS011;61260;51.090;-1.786;2023-02-03T08:24:11;1.70;;;0.10;;
73072;SDS011;61260;51.090;-1.786;2023-02-03T08:26:41;3.20;;;0.20;;
73072;SDS011;61260;51.090;-1.786;2023-02-03T08:29:11;0.50;;;0.20;;
73072;SDS011;61260;51.090;-1.786;2023-02-03T08:31:41;0.50;;;0.10;;
73072;SDS011;61260;51.090;-1.786;2023-02-03T08:34:11;0.10;;;0.00;;
73072;SDS011;61260;51.090;-1.786;2023-02-03T08:36:40;0.30;;;0.20;;
73072;SDS011;61260;51.090;-1.786;2023-02-03T08:39:10;0.50;;;0.10;;
73072;SDS011;61260;51.090;-1.786;2023-02-03T08:41:40;0.90;;;0.20;;
73072;SDS011;61260;51.090;-1.786;2023-02-03T08:44:09;0.30;;;0.10;;
73072;SDS011;61260;51.090;-1.786;2023-02-03T08:46:39;0.20;;;0.00;;
73072;SDS011;61260;51.090;-1.786;2023-02-03T08:49:09;0.90;;;0.00;;
73072;SDS011;61260;51.090;-1.786;2023-02-03T08:51:39;0.50;;;0.10;;
73072;SDS011;61260;51.090;-1.786;2023-02-03T08:54:09;1.60;;;0.40;;
73072;SDS011;61260;51.090;-1.786;2023-02-03T08:56:39;0.90;;;0.30;;
73072;SDS011;61260;51.090;-1.786;2023-02-03T08:59:09;1.20;;;0.20;;
73072;SDS011;61260;51.090;-1.786;2023-02-03T09:01:39;0.80;;;0.20;;
73072;SDS011;61260;51.090;-1.786;2023-02-03T09:04:11;0.70;;;0.20;;
73072;SDS011;61260;51.090;-1.786;2023-02-03T09:06:43;0.60;;;0.10;;
73072;SDS011;61260;51.090;-1.786;2023-02-03T09:09:15;0.40;;;0.10;;
73072;SDS011;61260;51.090;-1.786;2023-02-03T09:11:45;1.50;;;0.10;;
73072;SDS011;61260;51.090;-1.786;2023-02-03T09:14:15;1.70;;;0.10;;
73072;SDS011;61260;51.090;-1.786;2023-02-03T09:16:44;0.60;;;0.20;;
73072;SDS011;61260;51.090;-1.786;2023-02-03T09:19:14;2.10;;;0.60;;
73072;SDS011;61260;51.090;-1.786;2023-02-03T09:21:44;0.70;;;0.10;;
73072;SDS011;61260;51.090;-1.786;2023-02-03T09:24:14;3.10;;;0.20;;
73072;SDS011;61260;51.090;-1.786;2023-02-03T09:26:44;2.30;;;0.20;;
73072;SDS011;61260;51.090;-1.786;2023-02-03T09:29:14;0.50;;;0.00;;
73072;SDS011;61260;51.090;-1.786;2023-02-03T09:31:44;0.70;;;0.20;;
73072;SDS011;61260;51.090;-1.786;2023-02-03T09:34:18;2.10;;;0.20;;
73072;SDS011;61260;51.090;-1.786;2023-02-03T09:36:48;0.30;;;0.10;;
73072;SDS011;61260;51.090;-1.786;2023-02-03T09:39:18;1.20;;;0.10;;
73072;SDS011;61260;51.090;-1.786;2023-02-03T09:44:52;0.70;;;0.20;;
73072;SDS011;61260;51.090;-1.786;2023-02-03T09:47:31;1.10;;;0.20;;
73072;SDS011;61260;51.090;-1.786;2023-02-03T09:50:05;0.90;;;0.20;;
73072;SDS011;61260;51.090;-1.786;2023-02-03T09:52:39;0.60;;;0.10;;
73072;SDS011;61260;51.090;-1.786;2023-02-03T09:57:47;0.40;;;0.10;;
73072;SDS011;61260;51.090;-1.786;2023-02-03T10:00:23;2.20;;;0.30;;
73072;SDS011;61260;51.090;-1.786;2023-02-03T10:02:58;0.80;;;0.10;;
73072;SDS011;61260;51.090;-1.786;2023-02-03T10:05:39;1.60;;;0.20;;
73072;SDS011;61260;51.090;-1.786;2023-02-03T10:08:21;0.60;;;0.10;;
73072;SDS011;61260;51.090;-1.786;2023-02-03T10:11:02;1.30;;;0.10;;
73072;SDS011;61260;51.090;-1.786;2023-02-03T10:13:45;1.20;;;0.10;;
73072;SDS011;61260;51.090;-1.786;2023-02-03T10:16:26;0.30;;;0.10;;
73072;SDS011;61260;51.090;-1.786;2023-02-03T10:19:08;0.30;;;0.20;;
73072;SDS011;61260;51.090;-1.786;2023-02-03T10:21:42;0.50;;;0.30;;
73072;SDS011;61260;51.090;-1.786;2023-02-03T10:24:18;1.50;;;0.10;;
73072;SDS011;61260;51.090;-1.786;2023-02-03T10:26:51;1.60;;;0.20;;
73072;SDS011;61260;51.090;-1.786;2023-02-03T10:29:22;0.40;;;0.20;;
73072;SDS011;61260;51.090;-1.786;2023-02-03T10:31:58;2.10;;;0.20;;
73072;SDS011;61260;51.090;-1.786;2023-02-03T10:34:28;0.80;;;0.10;;
73072;SDS011;61260;51.090;-1.786;2023-02-03T10:36:58;1.70;;;0.20;;
73072;SDS011;61260;51.090;-1.786;2023-02-03T10:39:38;1.70;;;0.10;;
73072;SDS011;61260;51.090;-1.786;2023-02-03T10:42:11;1.00;;;0.20;;
73072;SDS011;61260;51.090;-1.786;2023-02-03T10:44:42;0.80;;;0.20;;
73072;SDS011;61260;51.090;-1.786;2023-02-03T10:47:18;1.70;;;0.20;;
73072;SDS011;61260;51.090;-1.786;2023-02-03T10:49:51;1.40;;;0.20;;
73072;SDS011;61260;51.090;-1.786;2023-02-03T10:52:27;1.10;;;0.10;;
73072;SDS011;61260;51.090;-1.786;2023-02-03T10:54:59;0.40;;;0.00;;
73072;SDS011;61260;51.090;-1.786;2023-02-03T10:57:35;0.50;;;0.20;;
73072;SDS011;61260;51.090;-1.786;2023-02-03T11:00:18;0.80;;;0.30;;
73072;SDS011;61260;51.090;-1.786;2023-02-03T11:02:57;1.30;;;0.10;;
73072;SDS011;61260;51.090;-1.786;2023-02-03T11:05:33;0.30;;;0.00;;
73072;SDS011;61260;51.090;-1.786;2023-02-03T11:08:03;1.00;;;0.20;;
73072;SDS011;61260;51.090;-1.786;2023-02-03T11:10:40;0.80;;;0.10;;
73072;SDS011;61260;51.090;-1.786;2023-02-03T11:13:15;1.00;;;0.30;;
73072;SDS011;61260;51.090;-1.786;2023-02-03T11:15:54;1.70;;;0.30;;
73072;SDS011;61260;51.090;-1.786;2023-02-03T11:18:36;0.50;;;0.10;;
73072;SDS011;61260;51.090;-1.786;2023-02-03T11:21:09;1.70;;;0.10;;
73072;SDS011;61260;51.090;-1.786;2023-02-03T11:23:45;0.80;;;0.10;;
73072;SDS011;61260;51.090;-1.786;2023-02-03T11:26:29;2.50;;;0.30;;
73072;SDS011;61260;51.090;-1.786;2023-02-03T11:29:03;1.60;;;0.20;;
73072;SDS011;61260;51.090;-1.786;2023-02-03T11:31:35;1.00;;;0.20;;
73072;SDS011;61260;51.090;-1.786;2023-02-03T11:34:05;0.40;;;0.10;;
73072;SDS011;61260;51.090;-1.786;2023-02-03T11:36:42;0.50;;;0.10;;
73072;SDS011;61260;51.090;-1.786;2023-02-03T11:39:18;0.30;;;0.10;;
73072;SDS011;61260;51.090;-1.786;2023-02-03T11:41:52;0.60;;;0.20;;
73072;SDS011;61260;51.090;-1.786;2023-02-03T11:44:23;0.40;;;0.00;;
73072;SDS011;61260;51.090;-1.786;2023-02-03T11:46:56;0.30;;;0.00;;
73072;SDS011;61260;51.090;-1.786;2023-02-03T11:49:34;0.50;;;0.20;;
73072;SDS011;61260;51.090;-1.786;2023-02-03T11:52:25;1.30;;;0.10;;
73072;SDS011;61260;51.090;-1.786;2023-02-03T11:55:11;0.80;;;0.10;;
73072;SDS011;61260;51.090;-1.786;2023-02-03T11:57:50;0.70;;;0.20;;
73072;SDS011;61260;51.090;-1.786;2023-02-03T12:00:33;0.50;;;0.10;;
73072;SDS011;61260;51.090;-1.786;2023-02-03T12:03:14;1.10;;;0.10;;
73072;SDS011;61260;51.090;-1.786;2023-02-03T12:06:02;2.80;;;0.20;;
73072;SDS011;61260;51.090;-1.786;2023-02-03T12:08:47;1.80;;;0.50;;
73072;SDS011;61260;51.090;-1.786;2023-02-03T12:11:33;1.80;;;0.90;;
73072;SDS011;61260;51.090;-1.786;2023-02-03T12:14:21;3.30;;;0.70;;
73072;SDS011;61260;51.090;-1.786;2023-02-03T12:20:04;3.90;;;1.00;;
73072;SDS011;61260;51.090;-1.786;2023-02-03T12:22:45;3.10;;;1.30;;
73072;SDS011;61260;51.090;-1.786;2023-02-03T12:25:28;3.70;;;1.20;;
73072;SDS011;61260;51.090;-1.786;2023-02-03T12:28:11;5.30;;;1.70;;
73072;SDS011;61260;51.090;-1.786;2023-02-03T12:30:53;4.40;;;2.00;;
73072;SDS011;61260;51.090;-1.786;2023-02-03T12:33:28;4.30;;;1.70;;
73072;SDS011;61260;51.090;-1.786;2023-02-03T12:36:03;4.10;;;1.40;;
73072;SDS011;61260;51.090;-1.786;2023-02-03T12:38:37;4.00;;;1.80;;
73072;SDS011;61260;51.090;-1.786;2023-02-03T12:41:11;5.70;;;2.20;;
73072;SDS011;61260;51.090;-1.786;2023-02-03T12:43:45;2.90;;;1.70;;
73072;SDS011;61260;51.090;-1.786;2023-02-03T12:46:18;6.70;;;2.50;;
73072;SDS011;61260;51.090;-1.786;2023-02-03T12:48:55;5.60;;;2.20;;
73072;SDS011;61260;51.090;-1.786;2023-02-03T12:51:33;8.30;;;3.10;;
73072;SDS011;61260;51.090;-1.786;2023-02-03T12:54:09;5.40;;;2.30;;
73072;SDS011;61260;51.090;-1.786;2023-02-03T12:56:43;5.80;;;2.50;;
73072;SDS011;61260;51.090;-1.786;2023-02-03T12:59:19;3.90;;;1.90;;
73072;SDS011;61260;51.090;-1.786;2023-02-03T13:01:53;7.40;;;3.50;;
73072;SDS011;61260;51.090;-1.786;2023-02-03T13:04:27;7.10;;;2.70;;
73072;SDS011;61260;51.090;-1.786;2023-02-03T13:07:02;9.40;;;3.20;;
73072;SDS011;61260;51.090;-1.786;2023-02-03T13:09:40;7.70;;;3.20;;
73072;SDS011;61260;51.090;-1.786;2023-02-03T13:12:16;6.20;;;3.00;;
73072;SDS011;61260;51.090;-1.786;2023-02-03T13:14:56;6.70;;;3.40;;
73072;SDS011;61260;51.090;-1.786;2023-02-03T13:17:41;6.10;;;3.30;;
73072;SDS011;61260;51.090;-1.786;2023-02-03T13:20:16;7.00;;;4.10;;
73072;SDS011;61260;51.090;-1.786;2023-02-03T13:22:50;10.00;;;3.90;;
73072;SDS011;61260;51.090;-1.786;2023-02-03T13:25:21;8.60;;;3.30;;
73072;SDS011;61260;51.090;-1.786;2023-02-03T13:27:58;8.60;;;4.40;;
73072;SDS011;61260;51.090;-1.786;2023-02-03T13:30:42;8.00;;;3.80;;
73072;SDS011;61260;51.090;-1.786;2023-02-03T13:33:38;7.30;;;3.50;;
73072;SDS011;61260;51.090;-1.786;2023-02-03T13:36:38;6.40;;;3.30;;
73072;SDS011;61260;51.090;-1.786;2023-02-03T13:39:38;8.40;;;3.40;;
73072;SDS011;61260;51.090;-1.786;2023-02-03T13:42:20;6.70;;;3.50;;
73072;SDS011;61260;51.090;-1.786;2023-02-03T13:44:54;8.00;;;3.80;;
73072;SDS011;61260;51.090;-1.786;2023-02-03T13:47:35;5.50;;;3.20;;
73072;SDS011;61260;51.090;-1.786;2023-02-03T13:50:05;9.00;;;4.20;;
73072;SDS011;61260;51.090;-1.786;2023-02-03T13:52:47;7.70;;;3.30;;
73072;SDS011;61260;51.090;-1.786;2023-02-03T13:55:28;8.40;;;3.60;;
73072;SDS011;61260;51.090;-1.786;2023-02-03T13:58:02;7.00;;;3.40;;
73072;SDS011;61260;51.090;-1.786;2023-02-03T14:03:41;8.30;;;4.00;;
73072;SDS011;61260;51.090;-1.786;2023-02-03T14:09:39;6.40;;;3.40;;
73072;SDS011;61260;51.090;-1.786;2023-02-03T14:12:29;6.30;;;3.10;;
73072;SDS011;61260;51.090;-1.786;2023-02-03T14:15:12;7.60;;;3.10;;
73072;SDS011;61260;51.090;-1.786;2023-02-03T14:23:33;6.10;;;3.20;;
73072;SDS011;61260;51.090;-1.786;2023-02-03T14:29:07;8.20;;;3.60;;
73072;SDS011;61260;51.090;-1.786;2023-02-03T14:31:53;5.90;;;2.80;;
73072;SDS011;61260;51.090;-1.786;2023-02-03T14:34:28;6.90;;;3.10;;
73072;SDS011;61260;51.090;-1.786;2023-02-03T14:37:09;7.60;;;2.80;;
73072;SDS011;61260;51.090;-1.786;2023-02-03T14:49:01;5.60;;;2.90;;
73072;SDS011;61260;51.090;-1.786;2023-02-03T14:51:59;7.80;;;2.80;;
73072;SDS011;61260;51.090;-1.786;2023-02-03T14:54:45;7.60;;;3.10;;
73072;SDS011;61260;51.090;-1.786;2023-02-03T14:57:28;4.50;;;2.60;;
73072;SDS011;61260;51.090;-1.786;2023-02-03T15:00:07;5.50;;;2.50;;
73072;SDS011;61260;51.090;-1.786;2023-02-03T15:06:01;6.10;;;2.50;;
73072;SDS011;61260;51.090;-1.786;2023-02-03T15:08:36;4.90;;;2.40;;
73072;SDS011;61260;51.090;-1.786;2023-02-03T15:11:15;5.70;;;2.20;;
73072;SDS011;61260;51.090;-1.786;2023-02-03T15:13:52;7.00;;;2.40;;
73072;SDS011;61260;51.090;-1.786;2023-02-03T15:16:23;6.40;;;2.70;;
73072;SDS011;61260;51.090;-1.786;2023-02-03T15:18:54;6.90;;;2.70;;
73072;SDS011;61260;51.090;-1.786;2023-02-03T15:21:25;5.10;;;2.20;;
73072;SDS011;61260;51.090;-1.786;2023-02-03T15:23:55;4.40;;;2.20;;
73072;SDS011;61260;51.090;-1.786;2023-02-03T15:26:25;6.00;;;2.30;;
73072;SDS011;61260;51.090;-1.786;2023-02-03T15:28:57;6.90;;;2.80;;
73072;SDS011;61260;51.090;-1.786;2023-02-03T15:31:30;5.60;;;2.30;;
73072;SDS011;61260;51.090;-1.786;2023-02-03T15:34:05;5.30;;;2.40;;
73072;SDS011;61260;51.090;-1.786;2023-02-03T15:36:42;7.10;;;3.00;;
73072;SDS011;61260;51.090;-1.786;2023-02-03T15:39:18;5.90;;;2.30;;
73072;SDS011;61260;51.090;-1.786;2023-02-03T15:41:59;5.70;;;2.20;;
73072;SDS011;61260;51.090;-1.786;2023-02-03T15:44:33;4.20;;;2.10;;
73072;SDS011;61260;51.090;-1.786;2023-02-03T15:47:14;4.00;;;1.80;;
73072;SDS011;61260;51.090;-1.786;2023-02-03T15:49:50;4.60;;;2.10;;
73072;SDS011;61260;51.090;-1.786;2023-02-03T15:52:26;4.10;;;1.90;;
73072;SDS011;61260;51.090;-1.786;2023-02-03T15:55:01;5.60;;;2.10;;
73072;SDS011;61260;51.090;-1.786;2023-02-03T15:57:39;4.70;;;1.80;;